Time;durP1;ratioP1;P1;durP2;ratioP2;P2;SDS_P1;SDS_P2;PMS_P1;PMS_P2;Temp;Humidity;BMP_temperature;BMP_pressure;BME280_temperature;BME280_humidity;BME280_pressure;Samples;Min_cycle;Max_cycle;Signal;HPM_P1;HPM_P2
2021/09/15 00:01:18;;;;;;;;;;;26.50;99.90;;;;;;1821718;78;20463;-89
2021/09/15 00:03:48;;;;;;;;;;;26.50;99.90;;;;;;1818987;78;20256;-86
2021/09/15 00:06:18;;;;;;;;;;;26.50;99.90;;;;;;1806841;78;20211;-87
2021/09/15 00:08:51;;;;;;;;;;;26.50;99.90;;;;;;1820567;77;20210;-88
2021/09/15 00:11:23;;;;;;;;;;;26.50;99.90;;;;;;1838240;76;20133;-86
2021/09/15 00:13:54;;;;;;;;;;;26.60;99.90;;;;;;1790208;79;20174;-87
2021/09/15 00:16:23;;;;;;;;;;;26.60;99.90;;;;;;1832684;78;20245;-88
2021/09/15 00:18:56;;;;;;;;;;;26.60;99.90;;;;;;1835400;77;20478;-88
2021/09/15 00:21:24;;;;;;;;;;;26.60;99.90;;;;;;1832677;77;20190;-88
2021/09/15 00:23:54;;;;;;;;;;;26.60;99.90;;;;;;1833847;77;20260;-88
2021/09/15 00:26:23;;;;;;;;;;;26.70;99.90;;;;;;1847621;77;20248;-87
2021/09/15 00:28:53;;;;;;;;;;;26.60;99.90;;;;;;1848445;76;20279;-86
2021/09/15 00:31:22;;;;;;;;;;;26.70;99.90;;;;;;1838140;76;20130;-87
2021/09/15 00:33:52;;;;;;;;;;;26.70;99.90;;;;;;1833117;78;20134;-88
2021/09/15 00:36:32;;;;;;;;;;;26.70;99.90;;;;;;1831033;78;20122;-89
2021/09/15 00:39:45;;;;;;;;;;;26.70;99.90;;;;;;1831624;77;20154;-88
2021/09/15 00:42:25;;;;;;;;;;;26.70;99.90;;;;;;1788668;79;20179;-90
2021/09/15 00:44:36;;;;;;;;;;;26.80;99.90;;;;;;1818204;78;20129;-88
2021/09/15 00:47:05;;;;;;;;;;;26.80;99.90;;;;;;1804457;78;20149;-86
2021/09/15 00:49:36;;;;;;;;;;;26.80;99.90;;;;;;1804749;79;20177;-87
2021/09/15 00:52:06;;;;;;;;;;;26.90;99.90;;;;;;1804682;79;20245;-87
2021/09/15 00:54:35;;;;;;;;;;;26.90;99.90;;;;;;1798911;79;20235;-87
2021/09/15 00:57:05;;;;;;;;;;;26.90;99.90;;;;;;1807805;79;20235;-86
2021/09/15 00:59:35;;;;;;;;;;;27.00;99.90;;;;;;1800169;79;20239;-88
2021/09/15 01:02:04;;;;;;;;;;;27.00;99.90;;;;;;1795911;79;20258;-88
2021/09/15 01:04:35;;;;;;;;;;;27.10;99.90;;;;;;1809954;79;20215;-87
2021/09/15 01:09:58;;;;;;;;;;;27.20;99.90;;;;;;1781612;80;20198;-86
2021/09/15 01:12:28;;;;;;;;;;;27.30;99.90;;;;;;1777591;80;20318;-86
2021/09/15 01:14:59;;;;;;;;;;;27.30;99.90;;;;;;1778793;81;20148;-86
2021/09/15 01:17:33;;;;;;;;;;;27.40;99.90;;;;;;1787560;79;20219;-87
2021/09/15 01:20:05;;;;;;;;;;;27.40;99.90;;;;;;1780871;81;20175;-87
2021/09/15 01:22:34;;;;;;;;;;;27.50;99.90;;;;;;1780120;81;20186;-86
2021/09/15 01:25:04;;;;;;;;;;;27.50;99.90;;;;;;1793377;79;20179;-88
2021/09/15 01:27:34;;;;;;;;;;;27.50;99.90;;;;;;1777756;81;20187;-87
2021/09/15 01:30:04;;;;;;;;;;;27.60;99.90;;;;;;1754605;81;20603;-87
2021/09/15 01:32:34;;;;;;;;;;;27.60;99.90;;;;;;1729935;81;20219;-88
2021/09/15 01:35:04;;;;;;;;;;;27.60;99.90;;;;;;1746601;82;20341;-87
2021/09/15 01:37:35;;;;;;;;;;;27.70;99.90;;;;;;1745201;82;20216;-87
2021/09/15 01:40:04;;;;;;;;;;;27.80;99.90;;;;;;1743189;81;20383;-86
2021/09/15 01:48:47;;;;;;;;;;;27.80;99.90;;;;;;1707332;84;20222;-87
2021/09/15 01:51:16;;;;;;;;;;;27.80;99.90;;;;;;1718795;82;20572;-87
2021/09/15 01:56:55;;;;;;;;;;;27.90;99.90;;;;;;1728053;80;20238;-86
2021/09/15 01:59:29;;;;;;;;;;;27.90;99.90;;;;;;1739723;79;20208;-87
2021/09/15 02:02:19;;;;;;;;;;;28.00;99.90;;;;;;1718153;84;20498;-86
2021/09/15 02:04:52;;;;;;;;;;;28.00;99.90;;;;;;1702905;84;20201;-87
2021/09/15 02:07:21;;;;;;;;;;;28.10;99.90;;;;;;1731209;82;20263;-87
2021/09/15 02:13:00;;;;;;;;;;;28.20;99.90;;;;;;1725122;80;20239;-88
2021/09/15 02:15:33;;;;;;;;;;;28.20;99.90;;;;;;1768275;80;20151;-88
2021/09/15 02:18:03;;;;;;;;;;;28.30;99.90;;;;;;1774055;80;20320;-89
2021/09/15 02:20:39;;;;;;;;;;;28.30;99.90;;;;;;1752890;79;20231;-88
2021/09/15 02:23:48;;;;;;;;;;;28.40;99.90;;;;;;1805277;78;20230;-88
2021/09/15 02:26:02;;;;;;;;;;;28.40;99.90;;;;;;1831607;77;20548;-76
2021/09/15 02:28:32;;;;;;;;;;;28.50;99.90;;;;;;1836957;78;20197;-76
2021/09/15 02:31:02;;;;;;;;;;;28.50;99.90;;;;;;1837234;78;20284;-78
2021/09/15 02:33:32;;;;;;;;;;;28.50;99.90;;;;;;1837156;78;20135;-78
2021/09/15 02:36:02;;;;;;;;;;;28.50;99.90;;;;;;1825444;78;20234;-79
2021/09/15 02:38:31;;;;;;;;;;;28.50;99.90;;;;;;1820114;79;20233;-78
2021/09/15 02:41:01;;;;;;;;;;;28.60;99.90;;;;;;1818147;79;20186;-77
2021/09/15 02:43:31;;;;;;;;;;;28.50;99.90;;;;;;1818406;78;20190;-78
2021/09/15 02:46:01;;;;;;;;;;;28.60;99.90;;;;;;1864331;76;20418;-78
2021/09/15 02:48:30;;;;;;;;;;;28.70;99.90;;;;;;1758656;82;20252;-78
2021/09/15 02:51:00;;;;;;;;;;;28.70;99.90;;;;;;1801199;78;20223;-79
2021/09/15 02:53:37;;;;;;;;;;;28.70;99.90;;;;;;1815029;78;20197;-78
2021/09/15 02:56:06;;;;;;;;;;;28.80;99.90;;;;;;1788166;78;20549;-78
2021/09/15 02:58:36;;;;;;;;;;;28.80;99.90;;;;;;1813429;79;20219;-78
2021/09/15 03:01:07;;;;;;;;;;;28.80;99.90;;;;;;1815409;78;20191;-77
2021/09/15 03:03:37;;;;;;;;;;;28.90;99.90;;;;;;1801052;79;20506;-78
2021/09/15 03:06:07;;;;;;;;;;;29.10;99.90;;;;;;1816461;78;20562;-78
2021/09/15 03:08:37;;;;;;;;;;;29.20;99.90;;;;;;1803256;79;20175;-78
2021/09/15 03:11:06;;;;;;;;;;;29.30;99.90;;;;;;1811486;79;20188;-78
2021/09/15 03:13:36;;;;;;;;;;;29.30;99.90;;;;;;1797828;79;20151;-79
2021/09/15 03:16:06;;;;;;;;;;;29.40;99.90;;;;;;1815215;78;20254;-78
2021/09/15 03:18:35;;;;;;;;;;;29.60;99.90;;;;;;1814915;78;20268;-79
2021/09/15 03:21:05;;;;;;;;;;;29.70;99.90;;;;;;1806949;79;20182;-79
2021/09/15 03:23:35;;;;;;;;;;;29.80;99.90;;;;;;1799716;79;20263;-76
2021/09/15 03:26:05;;;;;;;;;;;29.90;99.90;;;;;;1801270;78;20156;-79
2021/09/15 03:28:50;;;;;;;;;;;30.00;99.90;;;;;;1794642;78;20123;-77
2021/09/15 03:31:23;;;;;;;;;;;30.10;99.90;;;;;;1819195;79;20152;-79
2021/09/15 03:33:53;;;;;;;;;;;30.10;99.90;;;;;;1834313;78;20178;-77
2021/09/15 03:39:28;;;;;;;;;;;30.10;99.90;;;;;;1771611;79;20299;-78
2021/09/15 03:42:15;;;;;;;;;;;29.90;99.90;;;;;;1801941;78;20174;-78
2021/09/15 03:44:45;;;;;;;;;;;29.90;99.90;;;;;;1794653;78;20204;-78
2021/09/15 03:47:15;;;;;;;;;;;29.80;99.90;;;;;;1801607;78;20273;-78
2021/09/15 03:49:46;;;;;;;;;;;29.80;99.90;;;;;;1788567;77;20217;-78
2021/09/15 03:55:42;;;;;;;;;;;30.00;99.90;;;;;;1748353;81;20239;-78
2021/09/15 03:58:11;;;;;;;;;;;30.20;99.90;;;;;;1744823;81;20215;-79
2021/09/15 04:00:45;;;;;;;;;;;30.50;99.90;;;;;;1714604;82;20278;-78
2021/09/15 04:03:32;;;;;;;;;;;30.50;99.90;;;;;;1704074;84;20696;-79
2021/09/15 04:06:04;;;;;;;;;;;30.70;99.90;;;;;;1713776;82;20251;-79
2021/09/15 04:08:34;;;;;;;;;;;30.90;99.90;;;;;;1709006;84;20229;-80
2021/09/15 04:11:04;;;;;;;;;;;31.00;99.90;;;;;;1730021;81;20209;-78
2021/09/15 04:19:42;;;;;;;;;;;31.10;99.90;;;;;;1732310;81;20157;-79
2021/09/15 04:22:18;;;;;;;;;;;31.20;99.90;;;;;;1717527;83;20144;-79
2021/09/15 04:33:13;;;;;;;;;;;31.40;99.90;;;;;;1789792;79;20448;-80
2021/09/15 04:35:43;;;;;;;;;;;31.40;99.50;;;;;;1795575;78;20137;-78
2021/09/15 04:41:06;;;;;;;;;;;31.30;99.30;;;;;;1744792;81;20289;-79
2021/09/15 04:43:36;;;;;;;;;;;31.20;99.40;;;;;;1744246;82;20228;-78
2021/09/15 04:46:06;;;;;;;;;;;31.20;99.90;;;;;;1744133;80;20324;-78
2021/09/15 04:48:37;;;;;;;;;;;31.20;99.90;;;;;;1743611;82;20236;-78
2021/09/15 04:51:07;;;;;;;;;;;31.30;99.60;;;;;;1733143;82;20212;-80
2021/09/15 04:53:36;;;;;;;;;;;31.40;98.90;;;;;;1728476;82;20590;-79
2021/09/15 04:56:06;;;;;;;;;;;31.50;98.70;;;;;;1743151;82;20153;-79
2021/09/15 04:58:36;;;;;;;;;;;31.60;96.70;;;;;;1724675;82;20219;-82
2021/09/15 05:01:06;;;;;;;;;;;31.60;96.90;;;;;;1698951;83;20271;-79
2021/09/15 05:03:36;;;;;;;;;;;31.60;97.60;;;;;;1733063;82;20154;-80
2021/09/15 05:06:06;;;;;;;;;;;31.50;97.90;;;;;;1742705;82;20189;-79
2021/09/15 05:08:35;;;;;;;;;;;31.60;98.00;;;;;;1738537;82;20243;-79
2021/09/15 05:11:05;;;;;;;;;;;31.50;98.30;;;;;;1734687;81;20245;-80
2021/09/15 05:13:35;;;;;;;;;;;31.50;97.30;;;;;;1744055;81;20323;-78
2021/09/15 05:16:05;;;;;;;;;;;31.50;97.20;;;;;;1732363;82;20306;-78
2021/09/15 05:18:34;;;;;;;;;;;31.60;96.70;;;;;;1773599;79;20209;-78
2021/09/15 05:21:04;;;;;;;;;;;31.80;95.90;;;;;;1797443;79;20225;-78
2021/09/15 05:23:34;;;;;;;;;;;31.90;96.00;;;;;;1791554;80;20250;-79
2021/09/15 05:26:04;;;;;;;;;;;31.90;96.50;;;;;;1798387;80;20481;-78
2021/09/15 05:28:33;;;;;;;;;;;32.10;95.40;;;;;;1798438;80;20120;-78
2021/09/15 05:31:03;;;;;;;;;;;32.00;96.40;;;;;;1798524;80;20446;-79
2021/09/15 05:33:33;;;;;;;;;;;32.00;95.80;;;;;;1804187;77;20572;-79
2021/09/15 05:36:03;;;;;;;;;;;32.10;96.40;;;;;;1810641;77;20187;-77
2021/09/15 05:41:26;;;;;;;;;;;32.10;96.60;;;;;;1758782;81;20567;-80
2021/09/15 05:43:56;;;;;;;;;;;32.10;95.70;;;;;;1758550;82;20284;-79
2021/09/15 05:46:25;;;;;;;;;;;32.00;97.00;;;;;;1758426;79;20230;-79
2021/09/15 05:48:55;;;;;;;;;;;32.00;96.10;;;;;;1758352;82;20212;-80
2021/09/15 05:51:25;;;;;;;;;;;31.90;97.40;;;;;;1741622;81;20266;-79
2021/09/15 05:53:56;;;;;;;;;;;31.90;97.60;;;;;;1721105;83;20289;-78
2021/09/15 05:56:25;;;;;;;;;;;31.90;97.30;;;;;;1760320;81;20312;-79
2021/09/15 05:58:55;;;;;;;;;;;31.90;97.00;;;;;;1760372;81;20275;-80
2021/09/15 06:01:25;;;;;;;;;;;31.90;96.10;;;;;;1760817;81;20314;-79
2021/09/15 06:03:55;;;;;;;;;;;32.00;96.20;;;;;;1765302;80;20297;-80
2021/09/15 06:06:25;;;;;;;;;;;32.10;95.80;;;;;;1764480;80;20264;-77
2021/09/15 06:08:55;;;;;;;;;;;32.20;96.40;;;;;;1747486;81;20304;-78
2021/09/15 06:11:25;;;;;;;;;;;32.20;95.00;;;;;;1745640;81;20244;-78
2021/09/15 06:13:55;;;;;;;;;;;32.20;94.70;;;;;;1761680;80;20275;-79
2021/09/15 06:16:24;;;;;;;;;;;32.20;96.60;;;;;;1761161;81;20239;-80
2021/09/15 06:18:54;;;;;;;;;;;32.20;94.30;;;;;;1779744;79;20694;-79
2021/09/15 06:24:22;;;;;;;;;;;32.10;95.30;;;;;;1833548;77;20258;-80
2021/09/15 06:26:52;;;;;;;;;;;32.20;94.80;;;;;;1868073;77;20495;-80
2021/09/15 06:29:22;;;;;;;;;;;32.20;95.30;;;;;;1868533;76;20212;-80
2021/09/15 06:31:52;;;;;;;;;;;32.20;94.90;;;;;;1871334;75;20218;-79
2021/09/15 06:34:22;;;;;;;;;;;32.20;95.20;;;;;;1863683;77;20225;-79
2021/09/15 06:36:53;;;;;;;;;;;32.10;95.00;;;;;;1867588;75;20236;-79
2021/09/15 06:39:23;;;;;;;;;;;32.10;95.30;;;;;;1868330;77;20170;-78
2021/09/15 06:41:53;;;;;;;;;;;32.00;95.40;;;;;;1784501;79;20131;-78
2021/09/15 06:44:22;;;;;;;;;;;32.00;96.10;;;;;;1786072;80;20255;-79
2021/09/15 06:46:52;;;;;;;;;;;31.90;97.00;;;;;;1831638;77;20190;-77
2021/09/15 06:49:22;;;;;;;;;;;31.80;97.70;;;;;;1793767;79;20243;-78
2021/09/15 06:51:52;;;;;;;;;;;31.50;98.10;;;;;;1827072;78;20528;-79
2021/09/15 06:54:22;;;;;;;;;;;31.30;98.70;;;;;;1827369;78;20246;-78
2021/09/15 06:56:52;;;;;;;;;;;31.20;99.20;;;;;;1868140;77;20212;-79
2021/09/15 06:59:21;;;;;;;;;;;31.20;99.80;;;;;;1874495;76;20247;-79
2021/09/15 07:01:51;;;;;;;;;;;31.20;99.90;;;;;;1869786;75;20189;-78
2021/09/15 07:04:21;;;;;;;;;;;31.20;99.90;;;;;;1867596;77;20197;-79
2021/09/15 07:06:52;;;;;;;;;;;31.20;99.90;;;;;;1868797;75;20247;-79
2021/09/15 07:09:21;;;;;;;;;;;31.30;99.90;;;;;;1868521;77;20240;-79
2021/09/15 07:11:51;;;;;;;;;;;31.30;99.90;;;;;;1868700;75;20216;-79
2021/09/15 07:14:21;;;;;;;;;;;31.30;99.50;;;;;;1868598;77;20208;-77
2021/09/15 07:16:51;;;;;;;;;;;31.30;99.30;;;;;;1789423;79;20241;-77
2021/09/15 07:19:21;;;;;;;;;;;31.30;99.20;;;;;;1791880;79;20228;-79
2021/09/15 07:21:51;;;;;;;;;;;31.30;99.20;;;;;;1826943;78;20231;-76
2021/09/15 07:24:21;;;;;;;;;;;31.20;99.10;;;;;;1859948;77;20225;-76
2021/09/15 07:26:54;;;;;;;;;;;31.30;98.60;;;;;;1849279;76;20206;-78
2021/09/15 07:29:26;;;;;;;;;;;31.20;98.30;;;;;;1842169;76;20545;-78
2021/09/15 07:31:56;;;;;;;;;;;31.20;98.60;;;;;;1843740;76;20433;-78
2021/09/15 07:34:30;;;;;;;;;;;31.30;98.40;;;;;;1842129;76;20630;-78
2021/09/15 07:36:59;;;;;;;;;;;31.20;98.10;;;;;;1840380;77;20174;-78
2021/09/15 07:39:29;;;;;;;;;;;31.20;98.00;;;;;;1844087;76;20174;-78
2021/09/15 07:41:59;;;;;;;;;;;31.20;98.00;;;;;;1845728;76;20389;-76
2021/09/15 07:47:34;;;;;;;;;;;31.10;97.60;;;;;;1766864;80;20191;-79
2021/09/15 07:50:05;;;;;;;;;;;31.10;98.50;;;;;;1773939;79;20206;-78
2021/09/15 07:52:35;;;;;;;;;;;31.00;98.40;;;;;;1767398;81;20207;-78
2021/09/15 07:58:35;;;;;;;;;;;30.90;97.80;;;;;;1779683;80;20199;-81
2021/09/15 08:01:06;;;;;;;;;;;30.90;98.10;;;;;;1777417;80;20175;-79
2021/09/15 08:03:35;;;;;;;;;;;30.80;98.50;;;;;;1764355;81;20238;-78
2021/09/15 08:06:06;;;;;;;;;;;30.70;98.20;;;;;;1772540;79;20418;-79
2021/09/15 08:08:35;;;;;;;;;;;30.70;98.00;;;;;;1770542;79;20566;-78
2021/09/15 08:11:05;;;;;;;;;;;30.70;98.20;;;;;;1773399;79;20243;-78
2021/09/15 08:13:35;;;;;;;;;;;30.60;98.10;;;;;;1764578;80;20317;-78
2021/09/15 08:16:06;;;;;;;;;;;30.60;98.30;;;;;;1775497;79;20196;-78
2021/09/15 08:18:36;;;;;;;;;;;30.50;98.40;;;;;;1764712;79;20188;-78
2021/09/15 08:21:06;;;;;;;;;;;30.50;97.90;;;;;;1764809;80;20174;-79
2021/09/15 08:23:36;;;;;;;;;;;30.50;98.20;;;;;;1767873;79;20195;-79
2021/09/15 08:26:06;;;;;;;;;;;30.40;98.30;;;;;;1828939;77;20344;-79
2021/09/15 08:28:39;;;;;;;;;;;30.40;98.40;;;;;;1829941;77;20477;-79
2021/09/15 08:31:10;;;;;;;;;;;30.40;98.80;;;;;;1834246;77;20276;-78
2021/09/15 08:33:40;;;;;;;;;;;30.40;99.00;;;;;;1829536;78;20202;-77
2021/09/15 08:36:10;;;;;;;;;;;30.30;99.30;;;;;;1829435;78;20213;-78
2021/09/15 08:38:42;;;;;;;;;;;30.30;99.00;;;;;;1825621;78;20248;-78
2021/09/15 08:41:20;;;;;;;;;;;30.30;99.00;;;;;;1828100;76;20210;-78
2021/09/15 08:43:49;;;;;;;;;;;30.30;98.90;;;;;;1828314;77;20245;-79
2021/09/15 08:46:20;;;;;;;;;;;30.20;99.00;;;;;;1831644;76;20536;-78
2021/09/15 08:48:50;;;;;;;;;;;30.20;99.20;;;;;;1830203;78;20195;-80
2021/09/15 08:51:23;;;;;;;;;;;30.20;99.30;;;;;;1827085;77;20206;-79
2021/09/15 08:53:52;;;;;;;;;;;30.20;99.00;;;;;;1830861;76;20453;-78
2021/09/15 08:56:21;;;;;;;;;;;30.20;99.10;;;;;;1829699;78;20281;-78
2021/09/15 08:58:52;;;;;;;;;;;30.20;98.90;;;;;;1827843;78;20523;-79
2021/09/15 09:01:28;;;;;;;;;;;30.20;99.20;;;;;;1827128;78;20457;-78
2021/09/15 09:03:58;;;;;;;;;;;30.20;99.10;;;;;;1832220;77;20490;-78
2021/09/15 09:06:30;;;;;;;;;;;30.20;99.10;;;;;;1829125;77;20209;-78
2021/09/15 09:09:02;;;;;;;;;;;30.20;99.30;;;;;;1827125;78;20214;-79
2021/09/15 09:11:44;;;;;;;;;;;30.20;99.40;;;;;;1830683;78;20269;-78
2021/09/15 09:14:17;;;;;;;;;;;30.20;99.20;;;;;;1827353;77;20518;-78
2021/09/15 09:16:48;;;;;;;;;;;30.20;99.10;;;;;;1831852;78;20222;-80
2021/09/15 09:19:19;;;;;;;;;;;30.20;99.00;;;;;;1832690;78;20183;-79
2021/09/15 09:21:52;;;;;;;;;;;30.20;99.30;;;;;;1834242;77;20212;-76
2021/09/15 09:24:23;;;;;;;;;;;30.20;99.50;;;;;;1827256;78;20214;-78
2021/09/15 09:26:52;;;;;;;;;;;30.20;99.40;;;;;;1826883;78;20215;-78
2021/09/15 09:29:23;;;;;;;;;;;30.10;99.60;;;;;;1826687;77;20211;-78
2021/09/15 09:31:54;;;;;;;;;;;30.20;99.60;;;;;;1820312;78;20191;-79
2021/09/15 09:34:24;;;;;;;;;;;30.20;99.40;;;;;;1823967;77;20219;-78
2021/09/15 09:36:55;;;;;;;;;;;30.20;99.80;;;;;;1816846;78;20245;-77
2021/09/15 09:39:26;;;;;;;;;;;30.20;99.60;;;;;;1810031;77;20226;-78
2021/09/15 09:41:57;;;;;;;;;;;30.10;99.60;;;;;;1787175;78;20219;-78
2021/09/15 09:44:27;;;;;;;;;;;30.10;98.90;;;;;;1814229;77;20184;-77
2021/09/15 09:46:58;;;;;;;;;;;30.10;99.10;;;;;;1821567;77;20401;-79
2021/09/15 09:49:33;;;;;;;;;;;30.10;99.30;;;;;;1818275;77;20507;-80
2021/09/15 09:51:59;;;;;;;;;;;30.10;99.40;;;;;;1820782;78;20157;-79
2021/09/15 09:57:38;;;;;;;;;;;30.10;99.60;;;;;;1781653;80;20438;-77
2021/09/15 10:00:08;;;;;;;;;;;30.10;99.50;;;;;;1825698;78;20132;-79
2021/09/15 10:02:38;;;;;;;;;;;30.10;99.70;;;;;;1825392;78;20470;-77
2021/09/15 10:05:07;;;;;;;;;;;30.00;99.70;;;;;;1829861;78;20172;-79
2021/09/15 10:07:38;;;;;;;;;;;30.00;99.80;;;;;;1834922;76;20186;-78
2021/09/15 10:10:08;;;;;;;;;;;30.00;99.90;;;;;;1825628;77;20266;-79
2021/09/15 10:12:39;;;;;;;;;;;30.00;99.90;;;;;;1826715;78;20184;-78
2021/09/15 10:18:01;;;;;;;;;;;29.90;99.90;;;;;;1759426;81;20185;-79
2021/09/15 10:20:31;;;;;;;;;;;29.90;99.90;;;;;;1759460;81;20212;-80
2021/09/15 10:23:11;;;;;;;;;;;29.90;99.90;;;;;;1759833;80;20189;-80
2021/09/15 10:25:41;;;;;;;;;;;29.90;99.90;;;;;;1758334;80;20248;-80
2021/09/15 10:28:11;;;;;;;;;;;29.80;99.90;;;;;;1799946;79;20152;-78
2021/09/15 10:30:42;;;;;;;;;;;29.80;99.90;;;;;;1769243;81;20557;-79
2021/09/15 10:33:13;;;;;;;;;;;29.80;99.90;;;;;;1770163;81;20141;-79
2021/09/15 10:35:45;;;;;;;;;;;29.80;99.90;;;;;;1784762;79;20539;-78
2021/09/15 10:38:16;;;;;;;;;;;29.80;99.90;;;;;;1782344;79;20212;-79
2021/09/15 10:40:46;;;;;;;;;;;29.80;99.90;;;;;;1789435;79;20197;-79
2021/09/15 10:43:17;;;;;;;;;;;29.70;99.90;;;;;;1781424;79;20219;-80
2021/09/15 10:45:50;;;;;;;;;;;29.70;99.90;;;;;;1769073;81;20482;-78
2021/09/15 10:48:20;;;;;;;;;;;29.70;99.90;;;;;;1765360;81;20181;-78
2021/09/15 10:50:50;;;;;;;;;;;29.70;99.90;;;;;;1769687;81;20148;-78
2021/09/15 10:53:22;;;;;;;;;;;29.60;99.90;;;;;;1770185;79;20203;-78
2021/09/15 10:55:52;;;;;;;;;;;29.60;99.90;;;;;;1806788;77;20575;-77
2021/09/15 10:58:23;;;;;;;;;;;29.60;99.90;;;;;;1826164;78;20148;-78
2021/09/15 11:00:54;;;;;;;;;;;29.50;99.90;;;;;;1790333;78;20203;-80
2021/09/15 11:03:28;;;;;;;;;;;29.50;99.90;;;;;;1790096;80;20184;-79
2021/09/15 11:05:58;;;;;;;;;;;29.50;99.90;;;;;;1782226;78;20194;-89
2021/09/15 11:08:29;;;;;;;;;;;29.50;99.90;;;;;;1766064;81;20239;-90
2021/09/15 11:10:59;;;;;;;;;;;29.40;99.90;;;;;;1795515;80;20182;-89
2021/09/15 11:13:29;;;;;;;;;;;29.40;99.90;;;;;;1795579;79;20229;-90
2021/09/15 11:15:59;;;;;;;;;;;29.40;99.90;;;;;;1764554;81;20313;-90
2021/09/15 11:18:29;;;;;;;;;;;29.40;99.90;;;;;;1817375;77;20145;-89
2021/09/15 11:21:02;;;;;;;;;;;29.40;99.90;;;;;;1821736;79;20412;-89
2021/09/15 11:23:31;;;;;;;;;;;29.30;99.90;;;;;;1822878;77;20192;-90
2021/09/15 11:26:03;;;;;;;;;;;29.30;99.90;;;;;;1821138;79;20188;-92
2021/09/15 11:28:31;;;;;;;;;;;29.30;99.90;;;;;;1822212;78;20239;-90
2021/09/15 11:31:04;;;;;;;;;;;29.20;99.90;;;;;;1833947;76;20178;-89
2021/09/15 11:33:50;;;;;;;;;;;29.20;99.90;;;;;;1737782;82;20196;-91
2021/09/15 11:36:20;;;;;;;;;;;29.10;99.90;;;;;;1730505;83;20286;-89
2021/09/15 11:38:49;;;;;;;;;;;29.10;99.90;;;;;;1730357;82;20159;-89
2021/09/15 11:41:19;;;;;;;;;;;29.10;99.90;;;;;;1727511;82;20534;-91
2021/09/15 11:43:49;;;;;;;;;;;29.00;99.90;;;;;;1729971;83;20270;-89
2021/09/15 11:46:19;;;;;;;;;;;29.00;99.90;;;;;;1732743;82;20183;-90
2021/09/15 11:48:49;;;;;;;;;;;29.00;99.90;;;;;;1743535;82;20186;-90
2021/09/15 11:51:19;;;;;;;;;;;28.90;99.90;;;;;;1730550;82;20276;-89
2021/09/15 11:53:53;;;;;;;;;;;28.90;99.90;;;;;;1726747;81;20250;-88
2021/09/15 11:56:28;;;;;;;;;;;28.90;99.90;;;;;;1727207;82;20268;-89
2021/09/15 12:01:58;;;;;;;;;;;28.90;99.90;;;;;;1678563;84;20202;-87
2021/09/15 12:04:28;;;;;;;;;;;28.90;99.90;;;;;;1685719;84;20577;-88
2021/09/15 12:07:09;;;;;;;;;;;28.80;99.90;;;;;;1685770;84;20223;-91
2021/09/15 12:09:38;;;;;;;;;;;28.80;99.90;;;;;;1682380;85;20194;-90
2021/09/15 12:12:10;;;;;;;;;;;28.80;99.90;;;;;;1729115;81;20180;-91
2021/09/15 12:14:41;;;;;;;;;;;28.80;99.90;;;;;;1740367;82;20237;-91
2021/09/15 12:17:13;;;;;;;;;;;28.80;99.90;;;;;;1751158;81;20225;-88
2021/09/15 12:19:44;;;;;;;;;;;28.80;99.90;;;;;;1749233;81;20209;-87
2021/09/15 12:22:15;;;;;;;;;;;28.70;99.90;;;;;;1746077;80;20182;-89
2021/09/15 12:24:46;;;;;;;;;;;28.70;99.90;;;;;;1742328;81;20225;-87
2021/09/15 12:27:39;;;;;;;;;;;28.70;99.90;;;;;;1740339;80;21021;-88
2021/09/15 12:30:10;;;;;;;;;;;28.70;99.90;;;;;;1747569;80;20542;-89
2021/09/15 12:32:41;;;;;;;;;;;28.70;99.90;;;;;;1748098;81;20300;-89
2021/09/15 12:35:12;;;;;;;;;;;28.70;99.90;;;;;;1754892;81;20193;-89
2021/09/15 12:37:45;;;;;;;;;;;28.70;99.90;;;;;;1747956;81;20238;-88
2021/09/15 12:40:16;;;;;;;;;;;28.70;99.90;;;;;;1841432;76;20211;-89
2021/09/15 12:42:47;;;;;;;;;;;28.60;99.90;;;;;;1838390;77;20205;-91
2021/09/15 12:45:17;;;;;;;;;;;28.60;99.90;;;;;;1845659;78;20177;-90
2021/09/15 12:47:47;;;;;;;;;;;28.60;99.90;;;;;;1842797;76;20134;-90
2021/09/15 12:50:18;;;;;;;;;;;28.60;99.90;;;;;;1836357;76;20126;-90
2021/09/15 12:52:49;;;;;;;;;;;28.60;99.90;;;;;;1851128;76;20588;-91
2021/09/15 12:55:20;;;;;;;;;;;28.50;99.90;;;;;;1846069;76;20211;-90
2021/09/15 12:57:50;;;;;;;;;;;28.50;99.90;;;;;;1830927;78;20182;-88
2021/09/15 13:00:20;;;;;;;;;;;28.40;99.90;;;;;;1834142;76;20198;-88
2021/09/15 13:02:51;;;;;;;;;;;28.40;99.90;;;;;;1837523;76;20130;-88
2021/09/15 13:05:41;;;;;;;;;;;28.40;99.90;;;;;;1829078;78;20201;-88
2021/09/15 13:08:12;;;;;;;;;;;28.40;99.90;;;;;;1841993;76;20142;-88
2021/09/15 13:10:41;;;;;;;;;;;28.30;99.90;;;;;;1845343;76;20163;-89
2021/09/15 13:13:11;;;;;;;;;;;28.30;99.90;;;;;;1841329;74;20190;-89
2021/09/15 13:15:40;;;;;;;;;;;28.30;99.90;;;;;;1848071;78;20218;-87
2021/09/15 13:18:10;;;;;;;;;;;28.30;99.90;;;;;;1840964;77;20625;-89
2021/09/15 13:20:41;;;;;;;;;;;28.30;99.90;;;;;;1845174;76;20486;-88
2021/09/15 13:23:11;;;;;;;;;;;28.30;99.90;;;;;;1837765;77;20152;-88
2021/09/15 13:25:41;;;;;;;;;;;28.30;99.90;;;;;;1844692;76;20181;-88
2021/09/15 13:28:11;;;;;;;;;;;28.30;99.90;;;;;;1833498;78;20280;-90
2021/09/15 13:30:41;;;;;;;;;;;28.30;99.90;;;;;;1857000;76;20196;-89
2021/09/15 13:36:22;;;;;;;;;;;28.30;99.90;;;;;;1858338;76;20174;-88
2021/09/15 13:38:56;;;;;;;;;;;28.30;99.90;;;;;;1866937;76;20251;-89
2021/09/15 13:41:27;;;;;;;;;;;28.30;99.90;;;;;;1870540;76;20165;-89
2021/09/15 13:44:24;;;;;;;;;;;28.30;99.90;;;;;;1864937;76;20272;-90
2021/09/15 13:50:42;;;;;;;;;;;28.30;99.90;;;;;;1863081;76;20228;-89
2021/09/15 13:53:12;;;;;;;;;;;28.20;99.90;;;;;;1860901;76;20229;-90
2021/09/15 13:55:42;;;;;;;;;;;28.30;99.90;;;;;;1858943;76;20182;-87
2021/09/15 13:58:13;;;;;;;;;;;28.20;99.90;;;;;;1863957;76;20204;-89
2021/09/15 14:04:04;;;;;;;;;;;28.20;99.90;;;;;;1833519;77;20258;-89
2021/09/15 14:06:38;;;;;;;;;;;28.20;99.90;;;;;;1827102;77;20937;-89
2021/09/15 14:09:08;;;;;;;;;;;28.20;99.90;;;;;;1826629;78;20200;-89
2021/09/15 14:11:53;;;;;;;;;;;28.20;99.90;;;;;;1833340;77;20194;-87
2021/09/15 14:14:22;;;;;;;;;;;28.20;99.90;;;;;;1823735;77;20250;-88
2021/09/15 14:16:52;;;;;;;;;;;28.10;99.90;;;;;;1828989;77;20565;-89
2021/09/15 14:19:31;;;;;;;;;;;28.10;99.90;;;;;;1838503;77;20220;-89
2021/09/15 14:21:55;;;;;;;;;;;28.10;99.90;;;;;;1832367;77;20635;-89
2021/09/15 14:24:27;;;;;;;;;;;28.10;99.90;;;;;;1828277;77;20318;-89
2021/09/15 14:26:57;;;;;;;;;;;28.10;99.90;;;;;;1835328;77;20279;-88
2021/09/15 14:29:49;;;;;;;;;;;28.10;99.90;;;;;;1820723;78;20217;-88
2021/09/15 14:32:35;;;;;;;;;;;;;;;;;;;;;
2021/09/15 15:00:13;;;;;;;;;;;28.00;99.90;;;;;;1953683;72;20175;-95
2021/09/15 15:03:35;;;;;;;;;;;27.90;99.90;;;;;;1905517;73;20138;-94
2021/09/15 15:06:42;;;;;;;;;;;27.80;99.90;;;;;;1967172;73;20176;-93
2021/09/15 15:09:09;;;;;;;;;;;27.80;99.90;;;;;;1847579;77;20170;-92
2021/09/15 15:12:11;;;;;;;;;;;;;;;;;;;;;
2021/09/15 15:14:56;;;;;;;;;;;27.80;99.90;;;;;;1799204;78;20228;-94
2021/09/15 15:17:41;;;;;;;;;;;27.80;99.90;;;;;;1775638;80;20228;-94
2021/09/15 15:20:40;;;;;;;;;;;;;;;;;;;;;
2021/09/15 15:23:23;;;;;;;;;;;27.80;99.90;;;;;;1771541;79;20216;-94
2021/09/15 15:26:23;;;;;;;;;;;;;;;;;;;;;
2021/09/15 15:29:15;;;;;;;;;;;27.80;99.90;;;;;;1810674;77;20198;-93
2021/09/15 15:35:22;;;;;;;;;;;;;;;;;;;;;
2021/09/15 15:38:03;;;;;;;;;;;27.70;99.90;;;;;;1818552;77;20262;-90
2021/09/15 15:41:10;;;;;;;;;;;27.70;99.90;;;;;;1832024;76;20213;-92
2021/09/15 15:43:50;;;;;;;;;;;27.70;99.90;;;;;;1826968;77;20195;-93
2021/09/15 15:46:36;;;;;;;;;;;27.60;99.90;;;;;;1883295;73;20254;-92
2021/09/15 15:49:28;;;;;;;;;;;27.40;99.90;;;;;;1928187;73;20197;-92
2021/09/15 15:52:33;;;;;;;;;;;;;;;;;;;;;
2021/09/15 15:55:14;;;;;;;;;;;;;;;;;;1929199;73;20237;-94
2021/09/15 16:04:33;;;;;;;;;;;26.50;99.90;;;;;;1805527;79;20204;-94
2021/09/15 16:07:25;;;;;;;;;;;26.20;99.90;;;;;;1778189;80;20184;-92
2021/09/15 16:10:18;;;;;;;;;;;25.90;99.90;;;;;;1766064;78;20179;-93
2021/09/15 16:13:07;;;;;;;;;;;25.80;99.90;;;;;;1838514;77;20213;-93
2021/09/15 16:16:01;;;;;;;;;;;;;;;;;;;;;
2021/09/15 16:18:32;;;;;;;;;;;25.60;99.90;;;;;;1837817;77;20288;-92
2021/09/15 16:21:27;;;;;;;;;;;25.70;99.90;;;;;;1837483;75;20185;-93
2021/09/15 16:23:55;;;;;;;;;;;25.70;99.90;;;;;;1842666;75;20213;-92
2021/09/15 16:26:42;;;;;;;;;;;25.70;99.90;;;;;;1838957;75;20203;-92
2021/09/15 16:35:11;;;;;;;;;;;25.70;99.90;;;;;;1762456;78;20132;-93
2021/09/15 16:37:59;;;;;;;;;;;25.70;99.90;;;;;;1760853;78;20155;-92
2021/09/15 16:40:30;;;;;;;;;;;25.70;99.90;;;;;;1776999;75;20191;-92
2021/09/15 16:43:23;;;;;;;;;;;25.80;99.90;;;;;;1771753;77;20120;-93
2021/09/15 16:46:04;;;;;;;;;;;25.70;99.90;;;;;;1763078;80;20140;-93
2021/09/15 16:48:55;;;;;;;;;;;25.80;99.90;;;;;;1774011;79;20208;-93